AAM015 SEGU-SEQM
Flight info
| Callsign | AAM015 |
|---|---|
| Flight time | 0h 39m |
| Altitude | 24000 |
| Route | REGAP2 PAMIS G675 QIT |
| Aircraft | B738/M-SDGIJ1LRWY/SB1 |
Departure
| Time | 2026-04-14 04:19 |
|---|---|
| Airport | José Joaquín de Olmedo International Airport (SEGU) |
Arrival
| Time | 2026-04-14 04:59 |
|---|---|
| Airport | Mariscal Sucre International Airport (SEQM) |
| Time | Latitude | Longitude | Altitude | Speed | Heading |
|---|---|---|---|---|---|
| 2026-04-14 03:58 | -2.15596 | -79.88483 | 32 ft | 0 kts | 298° |
| 2026-04-14 04:11 | -2.15598 | -79.88478 | 32 ft | 2 kts | 298° |
| 2026-04-14 04:12 | -2.15605 | -79.88464 | 32 ft | 2 kts | 298° |
| 2026-04-14 04:12 | -2.15612 | -79.88451 | 33 ft | 2 kts | 298° |
| 2026-04-14 04:12 | -2.15619 | -79.88438 | 33 ft | 2 kts | 298° |
| 2026-04-14 04:12 | -2.15628 | -79.88426 | 32 ft | 2 kts | 333° |
| 2026-04-14 04:13 | -2.15643 | -79.88423 | 32 ft | 2 kts | 14° |
| 2026-04-14 04:13 | -2.15649 | -79.88426 | 31 ft | 1 kts | 36° |
| 2026-04-14 04:13 | -2.15653 | -79.88429 | 31 ft | 0 kts | 30° |
| 2026-04-14 04:15 | -2.15651 | -79.88427 | 31 ft | 3 kts | 30° |
| 2026-04-14 04:16 | -2.15607 | -79.88400 | 30 ft | 11 kts | 33° |
| 2026-04-14 04:16 | -2.15536 | -79.88357 | 29 ft | 11 kts | 30° |
| 2026-04-14 04:16 | -2.15461 | -79.88315 | 29 ft | 13 kts | 30° |
| 2026-04-14 04:16 | -2.15372 | -79.88263 | 28 ft | 15 kts | 30° |
| 2026-04-14 04:17 | -2.15274 | -79.88234 | 27 ft | 14 kts | 351° |
| 2026-04-14 04:17 | -2.15176 | -79.88232 | 27 ft | 14 kts | 29° |
| 2026-04-14 04:17 | -2.15070 | -79.88171 | 26 ft | 26 kts | 30° |
| 2026-04-14 04:17 | -2.14903 | -79.88075 | 27 ft | 27 kts | 30° |
| 2026-04-14 04:18 | -2.14744 | -79.87984 | 28 ft | 20 kts | 30° |
| 2026-04-14 04:18 | -2.14651 | -79.87890 | 27 ft | 19 kts | 69° |
| 2026-04-14 04:18 | -2.14643 | -79.87788 | 26 ft | 12 kts | 131° |
| 2026-04-14 04:18 | -2.14753 | -79.87800 | 26 ft | 33 kts | 207° |
| 2026-04-14 04:19 | -2.15150 | -79.88026 | 26 ft | 96 kts | 209° |
| 2026-04-14 04:19 | -2.15892 | -79.88452 | 32 ft | 147 kts | 210° |
| 2026-04-14 04:19 | -2.16859 | -79.88998 | 367 ft | 162 kts | 209° |
| 2026-04-14 04:19 | -2.17843 | -79.89547 | 905 ft | 167 kts | 210° |
| 2026-04-14 04:20 | -2.18885 | -79.90125 | 1361 ft | 177 kts | 206° |
| 2026-04-14 04:20 | -2.20032 | -79.90707 | 1782 ft | 192 kts | 202° |
| 2026-04-14 04:20 | -2.21378 | -79.90895 | 2175 ft | 206 kts | 167° |
| 2026-04-14 04:20 | -2.22651 | -79.90205 | 2645 ft | 214 kts | 130° |
| 2026-04-14 04:21 | -2.23297 | -79.88876 | 3132 ft | 221 kts | 95° |
| 2026-04-14 04:21 | -2.23024 | -79.87322 | 3490 ft | 239 kts | 61° |
| 2026-04-14 04:21 | -2.21886 | -79.86080 | 4134 ft | 244 kts | 30° |
| 2026-04-14 04:21 | -2.20423 | -79.85474 | 5334 ft | 224 kts | 18° |
| 2026-04-14 04:22 | -2.19009 | -79.84758 | 5781 ft | 241 kts | 39° |
| 2026-04-14 04:22 | -2.17846 | -79.83514 | 6504 ft | 244 kts | 50° |
| 2026-04-14 04:22 | -2.16754 | -79.82266 | 7302 ft | 243 kts | 44° |
| 2026-04-14 04:22 | -2.15507 | -79.81116 | 8070 ft | 245 kts | 39° |
| 2026-04-14 04:23 | -2.14182 | -79.80034 | 8836 ft | 247 kts | 38° |
| 2026-04-14 04:23 | -2.12833 | -79.78971 | 9543 ft | 252 kts | 38° |
| 2026-04-14 04:23 | -2.11465 | -79.77889 | 10267 ft | 255 kts | 38° |
| 2026-04-14 04:23 | -2.10076 | -79.76782 | 11055 ft | 258 kts | 38° |
| 2026-04-14 04:24 | -2.08654 | -79.75643 | 11753 ft | 263 kts | 39° |
| 2026-04-14 04:24 | -2.07221 | -79.74496 | 12464 ft | 267 kts | 39° |
| 2026-04-14 04:24 | -2.05782 | -79.73344 | 13224 ft | 269 kts | 39° |
| 2026-04-14 04:24 | -2.04283 | -79.72208 | 13956 ft | 273 kts | 34° |
| 2026-04-14 04:25 | -2.02667 | -79.71209 | 14657 ft | 277 kts | 31° |
| 2026-04-14 04:25 | -2.00968 | -79.70257 | 15336 ft | 282 kts | 30° |
| 2026-04-14 04:25 | -1.99249 | -79.69311 | 16014 ft | 286 kts | 30° |
| 2026-04-14 04:25 | -1.97499 | -79.68339 | 16665 ft | 290 kts | 31° |
| 2026-04-14 04:26 | -1.95722 | -79.67337 | 17328 ft | 294 kts | 31° |
| 2026-04-14 04:26 | -1.93948 | -79.66330 | 17965 ft | 297 kts | 31° |
| 2026-04-14 04:26 | -1.92139 | -79.65302 | 18601 ft | 299 kts | 31° |
| 2026-04-14 04:26 | -1.90316 | -79.64266 | 19249 ft | 301 kts | 31° |
| 2026-04-14 04:27 | -1.88490 | -79.63229 | 19854 ft | 304 kts | 31° |
| 2026-04-14 04:27 | -1.86651 | -79.62184 | 20450 ft | 306 kts | 32° |
| 2026-04-14 04:27 | -1.84807 | -79.61137 | 21047 ft | 309 kts | 32° |
| 2026-04-14 04:27 | -1.82904 | -79.60055 | 21559 ft | 314 kts | 32° |
| 2026-04-14 04:28 | -1.80968 | -79.58955 | 21831 ft | 327 kts | 32° |
| 2026-04-14 04:28 | -1.78951 | -79.57806 | 22075 ft | 341 kts | 32° |
| 2026-04-14 04:28 | -1.76845 | -79.56607 | 22312 ft | 355 kts | 32° |
| 2026-04-14 04:28 | -1.74668 | -79.55366 | 22594 ft | 367 kts | 32° |
| 2026-04-14 04:29 | -1.72403 | -79.54076 | 22814 ft | 381 kts | 32° |
| 2026-04-14 04:29 | -1.70033 | -79.52727 | 23067 ft | 394 kts | 31° |
| 2026-04-14 04:29 | -1.67626 | -79.51360 | 23466 ft | 402 kts | 31° |
| 2026-04-14 04:29 | -1.65191 | -79.49980 | 23919 ft | 406 kts | 31° |
| 2026-04-14 04:30 | -1.62696 | -79.48566 | 24019 ft | 409 kts | 31° |
| 2026-04-14 04:30 | -1.60231 | -79.47169 | 24036 ft | 406 kts | 31° |
| 2026-04-14 04:30 | -1.57781 | -79.45776 | 24036 ft | 403 kts | 32° |
| 2026-04-14 04:30 | -1.55397 | -79.44405 | 24058 ft | 387 kts | 32° |
| 2026-04-14 04:31 | -1.53122 | -79.43087 | 24088 ft | 371 kts | 32° |
| 2026-04-14 04:31 | -1.50909 | -79.41799 | 24105 ft | 354 kts | 33° |
| 2026-04-14 04:31 | -1.46835 | -79.39423 | 24121 ft | 332 kts | 32° |
| 2026-04-14 04:32 | -1.44808 | -79.38238 | 24113 ft | 338 kts | 33° |
| 2026-04-14 04:32 | -1.42745 | -79.37031 | 24170 ft | 350 kts | 33° |
| 2026-04-14 04:32 | -1.40613 | -79.35786 | 24391 ft | 361 kts | 32° |
| 2026-04-14 04:32 | -1.38384 | -79.34488 | 24622 ft | 371 kts | 32° |
| 2026-04-14 04:33 | -1.36157 | -79.33194 | 24755 ft | 377 kts | 32° |
| 2026-04-14 04:33 | -1.33877 | -79.31873 | 24625 ft | 368 kts | 32° |
| 2026-04-14 04:33 | -1.31678 | -79.30602 | 24700 ft | 367 kts | 32° |
| 2026-04-14 04:33 | -1.29401 | -79.29282 | 24697 ft | 384 kts | 32° |
| 2026-04-14 04:34 | -1.27056 | -79.27921 | 24710 ft | 400 kts | 32° |
| 2026-04-14 04:34 | -1.24596 | -79.26489 | 24719 ft | 415 kts | 32° |
| 2026-04-14 04:34 | -1.22036 | -79.25002 | 24736 ft | 430 kts | 32° |
| 2026-04-14 04:34 | -1.19410 | -79.23477 | 24735 ft | 444 kts | 32° |
| 2026-04-14 04:35 | -1.16694 | -79.21901 | 24619 ft | 461 kts | 32° |
| 2026-04-14 04:35 | -1.13848 | -79.20250 | 24422 ft | 476 kts | 32° |
| 2026-04-14 04:35 | -1.10993 | -79.18595 | 24291 ft | 477 kts | 32° |
| 2026-04-14 04:35 | -1.08108 | -79.16924 | 24308 ft | 477 kts | 32° |
| 2026-04-14 04:36 | -1.05220 | -79.15251 | 24350 ft | 478 kts | 32° |
| 2026-04-14 04:36 | -1.02343 | -79.13583 | 24371 ft | 478 kts | 32° |
| 2026-04-14 04:36 | -0.99471 | -79.11919 | 24388 ft | 477 kts | 32° |
| 2026-04-14 04:36 | -0.96602 | -79.10256 | 24400 ft | 477 kts | 32° |
| 2026-04-14 04:37 | -0.93724 | -79.08588 | 24405 ft | 477 kts | 31° |
| 2026-04-14 04:37 | -0.90812 | -79.06900 | 24429 ft | 478 kts | 32° |
| 2026-04-14 04:37 | -0.87963 | -79.05246 | 24424 ft | 479 kts | 31° |
| 2026-04-14 04:37 | -0.85051 | -79.03554 | 24427 ft | 478 kts | 32° |
| 2026-04-14 04:38 | -0.82177 | -79.01885 | 24432 ft | 478 kts | 32° |
| 2026-04-14 04:38 | -0.79298 | -79.00204 | 24450 ft | 479 kts | 32° |
| 2026-04-14 04:38 | -0.76465 | -78.98466 | 24446 ft | 478 kts | 33° |
| 2026-04-14 04:38 | -0.73639 | -78.96652 | 24457 ft | 478 kts | 34° |
| 2026-04-14 04:39 | -0.70870 | -78.94834 | 24452 ft | 478 kts | 35° |
| 2026-04-14 04:39 | -0.68079 | -78.92989 | 24440 ft | 478 kts | 35° |
| 2026-04-14 04:39 | -0.65304 | -78.91152 | 24445 ft | 478 kts | 35° |
| 2026-04-14 04:39 | -0.62535 | -78.89326 | 24446 ft | 477 kts | 35° |
| 2026-04-14 04:40 | -0.59771 | -78.87510 | 24431 ft | 479 kts | 34° |
| 2026-04-14 04:40 | -0.56968 | -78.85680 | 24437 ft | 478 kts | 34° |
| 2026-04-14 04:40 | -0.54155 | -78.83847 | 24448 ft | 479 kts | 34° |
| 2026-04-14 04:41 | -0.48581 | -78.80225 | 24414 ft | 479 kts | 34° |
| 2026-04-14 04:41 | -0.45774 | -78.78404 | 24427 ft | 480 kts | 34° |
| 2026-04-14 04:41 | -0.42948 | -78.76572 | 24414 ft | 480 kts | 34° |
| 2026-04-14 04:41 | -0.40140 | -78.74753 | 24421 ft | 479 kts | 34° |
| 2026-04-14 04:42 | -0.37343 | -78.72940 | 24421 ft | 479 kts | 34° |
| 2026-04-14 04:42 | -0.34540 | -78.71124 | 24414 ft | 479 kts | 34° |
| 2026-04-14 04:42 | -0.31770 | -78.69326 | 24430 ft | 478 kts | 34° |
| 2026-04-14 04:42 | -0.28961 | -78.67502 | 24435 ft | 480 kts | 34° |
| 2026-04-14 04:43 | -0.26149 | -78.65675 | 24422 ft | 479 kts | 34° |
| 2026-04-14 04:43 | -0.23330 | -78.63844 | 24405 ft | 479 kts | 34° |
| 2026-04-14 04:43 | -0.20546 | -78.62036 | 24377 ft | 477 kts | 34° |
| 2026-04-14 04:43 | -0.17775 | -78.60238 | 23907 ft | 464 kts | 34° |
| 2026-04-14 04:44 | -0.15140 | -78.58531 | 23418 ft | 440 kts | 34° |
| 2026-04-14 04:44 | -0.12628 | -78.56905 | 22925 ft | 420 kts | 34° |
| 2026-04-14 04:44 | -0.10254 | -78.55363 | 22446 ft | 403 kts | 34° |
| 2026-04-14 04:44 | -0.07927 | -78.53851 | 21988 ft | 386 kts | 34° |
| 2026-04-14 04:45 | -0.05747 | -78.52431 | 21555 ft | 372 kts | 34° |
| 2026-04-14 04:45 | -0.03611 | -78.51028 | 21190 ft | 360 kts | 37° |
| 2026-04-14 04:45 | -0.01807 | -78.49306 | 21131 ft | 356 kts | 56° |
| 2026-04-14 04:45 | -0.00723 | -78.47083 | 21121 ft | 359 kts | 76° |
| 2026-04-14 04:46 | -0.00490 | -78.44631 | 21116 ft | 358 kts | 96° |
| 2026-04-14 04:46 | -0.01140 | -78.42242 | 21119 ft | 358 kts | 116° |
| 2026-04-14 04:46 | -0.02605 | -78.40221 | 21115 ft | 361 kts | 135° |
| 2026-04-14 04:46 | -0.04681 | -78.38783 | 20776 ft | 366 kts | 154° |
| 2026-04-14 04:47 | -0.07130 | -78.38129 | 20333 ft | 366 kts | 174° |
| 2026-04-14 04:47 | -0.09632 | -78.38342 | 19891 ft | 366 kts | 194° |
| 2026-04-14 04:47 | -0.12024 | -78.39261 | 19478 ft | 363 kts | 204° |
| 2026-04-14 04:47 | -0.14233 | -78.40402 | 19151 ft | 357 kts | 207° |
| 2026-04-14 04:48 | -0.16398 | -78.41627 | 18807 ft | 355 kts | 208° |
| 2026-04-14 04:48 | -0.18539 | -78.42871 | 18359 ft | 355 kts | 208° |
| 2026-04-14 04:48 | -0.20689 | -78.44128 | 17794 ft | 357 kts | 209° |
| 2026-04-14 04:48 | -0.22819 | -78.45375 | 17364 ft | 348 kts | 209° |
| 2026-04-14 04:49 | -0.24852 | -78.46526 | 17083 ft | 330 kts | 205° |
| 2026-04-14 04:49 | -0.26893 | -78.47415 | 16938 ft | 308 kts | 198° |
| 2026-04-14 04:49 | -0.28865 | -78.48035 | 16866 ft | 284 kts | 192° |
| 2026-04-14 04:49 | -0.30741 | -78.48405 | 16795 ft | 263 kts | 185° |
| 2026-04-14 04:50 | -0.32517 | -78.48531 | 16734 ft | 243 kts | 178° |
| 2026-04-14 04:50 | -0.34160 | -78.48488 | 16671 ft | 230 kts | 175° |
| 2026-04-14 04:50 | -0.35713 | -78.48320 | 16601 ft | 217 kts | 164° |
| 2026-04-14 04:50 | -0.37109 | -78.47779 | 16365 ft | 214 kts | 150° |
| 2026-04-14 04:51 | -0.38396 | -78.46982 | 15887 ft | 222 kts | 143° |
| 2026-04-14 04:51 | -0.39642 | -78.46029 | 15395 ft | 229 kts | 138° |
| 2026-04-14 04:51 | -0.40813 | -78.44940 | 14925 ft | 232 kts | 133° |
| 2026-04-14 04:51 | -0.41873 | -78.43741 | 14468 ft | 228 kts | 128° |
| 2026-04-14 04:52 | -0.42576 | -78.42374 | 14130 ft | 217 kts | 97° |
| 2026-04-14 04:52 | -0.42327 | -78.40999 | 13862 ft | 198 kts | 60° |
| 2026-04-14 04:52 | -0.41456 | -78.40005 | 13682 ft | 189 kts | 39° |
| 2026-04-14 04:52 | -0.40348 | -78.39323 | 13372 ft | 182 kts | 27° |
| 2026-04-14 04:53 | -0.39207 | -78.38796 | 13155 ft | 182 kts | 25° |
| 2026-04-14 04:53 | -0.38050 | -78.38274 | 12927 ft | 181 kts | 25° |
| 2026-04-14 04:53 | -0.36897 | -78.37747 | 12705 ft | 180 kts | 25° |
| 2026-04-14 04:53 | -0.35752 | -78.37224 | 12480 ft | 179 kts | 25° |
| 2026-04-14 04:54 | -0.34622 | -78.36709 | 12252 ft | 180 kts | 25° |
| 2026-04-14 04:54 | -0.33495 | -78.36195 | 12018 ft | 177 kts | 25° |
| 2026-04-14 04:54 | -0.32360 | -78.35679 | 11798 ft | 177 kts | 25° |
| 2026-04-14 04:54 | -0.31233 | -78.35169 | 11531 ft | 178 kts | 24° |
| 2026-04-14 04:55 | -0.30059 | -78.34829 | 11201 ft | 175 kts | 8° |
| 2026-04-14 04:55 | -0.28832 | -78.34773 | 11007 ft | 175 kts | 0° |
| 2026-04-14 04:55 | -0.27606 | -78.34800 | 10723 ft | 175 kts | 358° |
| 2026-04-14 04:55 | -0.26404 | -78.34845 | 10491 ft | 173 kts | 358° |
| 2026-04-14 04:56 | -0.25198 | -78.34895 | 10231 ft | 173 kts | 358° |
| 2026-04-14 04:56 | -0.23983 | -78.34947 | 9984 ft | 171 kts | 357° |
| 2026-04-14 04:56 | -0.22801 | -78.35001 | 9749 ft | 172 kts | 358° |
| 2026-04-14 04:56 | -0.21610 | -78.35051 | 9507 ft | 170 kts | 358° |
| 2026-04-14 04:57 | -0.20424 | -78.35098 | 9268 ft | 170 kts | 358° |
| 2026-04-14 04:57 | -0.19230 | -78.35149 | 9030 ft | 169 kts | 358° |
| 2026-04-14 04:57 | -0.18045 | -78.35204 | 8792 ft | 169 kts | 357° |
| 2026-04-14 04:57 | -0.16878 | -78.35251 | 8557 ft | 168 kts | 358° |
| 2026-04-14 04:58 | -0.15699 | -78.35300 | 8323 ft | 168 kts | 357° |
| 2026-04-14 04:58 | -0.14531 | -78.35358 | 8074 ft | 167 kts | 357° |
| 2026-04-14 04:58 | -0.13415 | -78.35397 | 7946 ft | 140 kts | 358° |
| 2026-04-14 04:58 | -0.12668 | -78.35426 | 7903 ft | 78 kts | 357° |
| 2026-04-14 04:59 | -0.12231 | -78.35449 | 7870 ft | 62 kts | 358° |
| 2026-04-14 04:59 | -0.11841 | -78.35479 | 7844 ft | 40 kts | 348° |
| 2026-04-14 04:59 | -0.11657 | -78.35572 | 7838 ft | 12 kts | 315° |
| 2026-04-14 04:59 | -0.11638 | -78.35589 | 7837 ft | 0 kts | 316° |
| 2026-04-14 05:00 | -0.11635 | -78.35593 | 7837 ft | 1 kts | 306° |
| 2026-04-14 05:00 | -0.11627 | -78.35608 | 7836 ft | 3 kts | 293° |
| 2026-04-14 05:01 | -0.11645 | -78.35642 | 7837 ft | 6 kts | 204° |
| 2026-04-14 05:01 | -0.11697 | -78.35644 | 7838 ft | 10 kts | 177° |
| 2026-04-14 05:01 | -0.11777 | -78.35640 | 7841 ft | 15 kts | 177° |
| 2026-04-14 05:01 | -0.11901 | -78.35635 | 7847 ft | 20 kts | 178° |
| 2026-04-14 05:02 | -0.12055 | -78.35630 | 7855 ft | 23 kts | 178° |
| 2026-04-14 05:02 | -0.12215 | -78.35622 | 7865 ft | 20 kts | 176° |
| 2026-04-14 05:02 | -0.12331 | -78.35632 | 7871 ft | 14 kts | 214° |
| 2026-04-14 05:02 | -0.12362 | -78.35722 | 7868 ft | 16 kts | 267° |
| 2026-04-14 05:03 | -0.12373 | -78.35848 | 7862 ft | 19 kts | 265° |
| 2026-04-14 05:03 | -0.12376 | -78.35918 | 7856 ft | 8 kts | 269° |
| 2026-04-14 05:03 | -0.12376 | -78.35934 | 7855 ft | 1 kts | 266° |
| 2026-04-14 05:03 | -0.12376 | -78.35936 | 7855 ft | 0 kts | 266° |